createdAt,value
2018-05-07T00:01:52.933Z,17.20
2018-05-07T00:04:21.623Z,17.37
2018-05-07T00:06:51.327Z,19.10
2018-05-07T00:09:20.164Z,19.67
2018-05-07T00:11:49.771Z,19.47
2018-05-07T00:14:19.388Z,20.63
2018-05-07T00:16:47.922Z,22.87
2018-05-07T00:19:16.603Z,19.80
2018-05-07T00:21:45.297Z,21.67
2018-05-07T00:24:14.089Z,22.70
2018-05-07T00:26:42.880Z,17.87
2018-05-07T00:29:12.300Z,17.13
2018-05-07T00:31:41.915Z,16.83
2018-05-07T00:34:10.807Z,16.30
2018-05-07T00:36:39.524Z,15.77
2018-05-07T00:39:08.217Z,15.83
2018-05-07T00:41:37.685Z,15.80
2018-05-07T00:44:06.555Z,17.20
2018-05-07T00:46:35.248Z,16.90
2018-05-07T00:49:04.080Z,16.50
2018-05-07T00:51:32.854Z,16.93
2018-05-07T00:54:01.598Z,16.50
2018-05-07T00:56:30.322Z,16.90
2018-05-07T00:58:58.970Z,17.60
2018-05-07T01:01:27.661Z,16.53
2018-05-07T01:03:56.151Z,15.60
2018-05-07T01:06:25.632Z,18.00
2018-05-07T01:08:54.451Z,20.37
2018-05-07T01:11:23.324Z,20.23
2018-05-07T01:13:52.136Z,18.77
2018-05-07T01:16:20.909Z,18.20
2018-05-07T01:18:50.369Z,18.23
2018-05-07T01:21:19.161Z,17.37
2018-05-07T01:23:48.628Z,16.93
2018-05-07T01:26:17.494Z,17.00
2018-05-07T01:28:47.089Z,18.23
2018-05-07T01:31:15.744Z,17.30
2018-05-07T01:33:44.584Z,16.70
2018-05-07T01:36:13.272Z,17.67
2018-05-07T01:38:41.911Z,17.50
2018-05-07T01:41:10.679Z,17.67
2018-05-07T01:43:40.299Z,17.70
2018-05-07T01:46:09.011Z,18.37
2018-05-07T01:48:37.731Z,18.73
2018-05-07T01:51:06.402Z,18.70
2018-05-07T01:53:35.112Z,19.57
2018-05-07T01:56:04.264Z,20.13
2018-05-07T01:58:33.095Z,18.97
2018-05-07T02:01:01.839Z,20.70
2018-05-07T02:03:30.530Z,22.30
2018-05-07T02:05:58.999Z,21.00
2018-05-07T02:08:27.842Z,22.03
2018-05-07T02:10:57.432Z,22.50
2018-05-07T02:13:26.203Z,21.30
2018-05-07T02:15:55.126Z,22.10
2018-05-07T02:18:23.617Z,21.70
2018-05-07T02:20:52.351Z,22.23
2018-05-07T02:23:21.093Z,21.27
2018-05-07T02:25:49.811Z,21.17
2018-05-07T02:28:18.692Z,21.20
2018-05-07T02:30:47.519Z,20.33
2018-05-07T02:33:16.291Z,21.03
2018-05-07T02:35:45.185Z,21.53
2018-05-07T02:38:14.244Z,20.63
2018-05-07T02:40:43.047Z,20.30
2018-05-07T02:43:11.877Z,19.30
2018-05-07T02:45:40.710Z,20.67
2018-05-07T02:48:09.467Z,20.47
2018-05-07T02:50:38.934Z,19.47
2018-05-07T02:53:07.683Z,20.63
2018-05-07T02:55:36.393Z,21.03
2018-05-07T02:58:05.267Z,21.03
2018-05-07T03:00:34.103Z,20.97
2018-05-07T03:03:02.920Z,20.97
2018-05-07T03:05:31.637Z,19.87
2018-05-07T03:08:00.402Z,20.83
2018-05-07T03:10:29.148Z,20.37
2018-05-07T03:12:58.567Z,20.60
2018-05-07T03:15:27.207Z,19.90
2018-05-07T03:17:56.624Z,20.70
2018-05-07T03:20:25.716Z,20.37
2018-05-07T03:22:54.287Z,21.10
2018-05-07T03:25:22.976Z,22.07
2018-05-07T03:27:51.572Z,22.90
2018-05-07T03:30:20.962Z,22.50
2018-05-07T03:32:49.700Z,23.23
2018-05-07T03:35:18.733Z,22.23
2018-05-07T03:37:47.561Z,20.77
2018-05-07T03:40:16.395Z,21.77
2018-05-07T03:42:45.226Z,21.40
2018-05-07T03:45:13.920Z,22.23
2018-05-07T03:47:42.656Z,22.13
2018-05-07T03:50:11.526Z,21.70
2018-05-07T03:52:40.341Z,21.20
2018-05-07T03:55:09.191Z,21.80
2018-05-07T03:57:37.958Z,21.97
2018-05-07T04:00:06.620Z,22.27
2018-05-07T04:02:35.359Z,22.83
2018-05-07T04:05:04.326Z,24.33
2018-05-07T04:07:34.069Z,23.73
2018-05-07T04:10:03.758Z,21.73
2018-05-07T04:12:32.454Z,21.33
2018-05-07T04:15:01.147Z,21.83
2018-05-07T04:17:48.037Z,21.87
2018-05-07T04:20:34.025Z,21.77
2018-05-07T04:23:20.528Z,21.73
2018-05-07T04:25:49.441Z,21.17
2018-05-07T04:28:18.276Z,22.13
2018-05-07T04:30:47.107Z,21.50
2018-05-07T04:33:15.815Z,21.50
2018-05-07T04:35:44.731Z,20.87
2018-05-07T04:38:13.414Z,19.40
2018-05-07T04:40:42.169Z,19.97
2018-05-07T04:43:11.501Z,19.47
2018-05-07T04:45:40.204Z,20.27
2018-05-07T04:48:08.936Z,20.67
2018-05-07T04:50:37.485Z,20.93
2018-05-07T04:53:06.207Z,21.03
2018-05-07T04:55:34.744Z,19.77
2018-05-07T04:58:03.479Z,20.97
2018-05-07T05:00:32.306Z,20.97
2018-05-07T05:03:01.139Z,21.43
2018-05-07T05:05:29.970Z,20.80
2018-05-07T05:07:58.804Z,20.90
2018-05-07T05:10:27.298Z,21.30
2018-05-07T05:12:55.945Z,20.80
2018-05-07T05:15:24.710Z,20.73
2018-05-07T05:17:53.543Z,21.93
2018-05-07T05:20:22.377Z,21.63
2018-05-07T05:22:51.210Z,21.70
2018-05-07T05:25:20.039Z,21.20
2018-05-07T05:27:49.321Z,21.67
2018-05-07T05:30:18.096Z,22.23
2018-05-07T05:32:46.592Z,21.30
2018-05-07T05:35:15.300Z,21.80
2018-05-07T05:37:44.763Z,20.97
2018-05-07T05:40:13.204Z,20.77
2018-05-07T05:42:42.062Z,20.97
2018-05-07T05:45:10.895Z,21.03
2018-05-07T05:47:39.708Z,21.20
2018-05-07T05:50:08.624Z,20.80
2018-05-07T05:52:37.255Z,20.87
2018-05-07T05:55:06.027Z,20.37
2018-05-07T05:57:35.659Z,20.50
2018-05-07T06:00:04.800Z,20.53
2018-05-07T06:02:35.080Z,20.60
2018-05-07T06:05:03.808Z,20.33
2018-05-07T06:07:32.410Z,21.30
2018-05-07T06:10:01.164Z,19.77
2018-05-07T06:12:30.023Z,19.47
2018-05-07T06:14:59.056Z,20.53
2018-05-07T06:17:27.592Z,20.43
2018-05-07T06:19:56.233Z,20.23
2018-05-07T06:22:25.650Z,20.80
2018-05-07T06:24:54.221Z,19.70
2018-05-07T06:27:22.973Z,19.00
2018-05-07T06:29:51.903Z,19.30
2018-05-07T06:32:20.672Z,17.80
2018-05-07T06:34:49.504Z,18.07
2018-05-07T06:37:19.321Z,17.83
2018-05-07T06:39:48.023Z,16.27
2018-05-07T06:42:16.794Z,17.90
2018-05-07T06:44:45.481Z,17.20
2018-05-07T06:47:14.175Z,17.20
2018-05-07T06:49:43.641Z,15.93
2018-05-07T06:52:12.591Z,17.10
2018-05-07T06:54:41.344Z,17.83
2018-05-07T06:57:10.237Z,17.80
2018-05-07T06:59:39.075Z,16.63
2018-05-07T07:02:08.432Z,16.67
2018-05-07T07:04:37.245Z,16.40
2018-05-07T07:07:06.097Z,16.23
2018-05-07T07:09:35.462Z,15.27
2018-05-07T07:12:04.155Z,14.93
2018-05-07T07:14:32.739Z,15.80
2018-05-07T07:17:01.629Z,15.07
2018-05-07T07:19:30.452Z,15.40
2018-05-07T07:21:59.198Z,14.97
2018-05-07T07:24:27.788Z,14.80
2018-05-07T07:26:56.555Z,14.40
2018-05-07T07:29:25.393Z,15.00
2018-05-07T07:31:54.084Z,14.17
2018-05-07T07:34:22.806Z,13.73
2018-05-07T07:36:52.149Z,13.83
2018-05-07T07:39:20.917Z,14.37
2018-05-07T07:41:49.655Z,13.80
2018-05-07T07:44:18.578Z,14.00
2018-05-07T07:46:47.409Z,14.57
2018-05-07T07:49:16.244Z,14.60
2018-05-07T07:51:44.882Z,15.47
2018-05-07T07:54:13.710Z,14.60
2018-05-07T07:56:42.542Z,14.43
2018-05-07T07:59:11.243Z,13.70
2018-05-07T08:01:40.041Z,14.07
2018-05-07T08:04:08.901Z,14.03
2018-05-07T08:06:37.676Z,14.10
2018-05-07T08:09:06.902Z,13.60
2018-05-07T08:11:35.600Z,13.33
2018-05-07T08:14:04.332Z,13.70
2018-05-07T08:16:33.203Z,13.60
2018-05-07T08:19:02.032Z,12.77
2018-05-07T08:21:30.866Z,13.53
2018-05-07T08:24:00.477Z,12.63
2018-05-07T08:26:29.194Z,12.07
2018-05-07T08:28:57.911Z,12.23
2018-05-07T08:31:26.785Z,12.07
2018-05-07T08:33:55.475Z,11.30
2018-05-07T08:36:24.228Z,12.53
2018-05-07T08:38:53.086Z,12.33
2018-05-07T08:41:23.034Z,12.07
2018-05-07T08:43:52.534Z,11.70
2018-05-07T08:46:21.261Z,11.93
2018-05-07T08:48:49.954Z,11.70
2018-05-07T08:51:18.819Z,11.37
2018-05-07T08:53:47.361Z,11.80
2018-05-07T08:56:16.097Z,12.60
2018-05-07T08:58:45.579Z,11.67
2018-05-07T09:01:14.067Z,11.60
2018-05-07T09:03:42.758Z,11.03
2018-05-07T09:06:11.425Z,10.10
2018-05-07T09:08:40.129Z,12.27
2018-05-07T09:11:08.889Z,12.63
2018-05-07T09:13:38.002Z,11.50
2018-05-07T09:16:06.499Z,11.63
2018-05-07T09:18:35.185Z,15.13
2018-05-07T09:21:03.822Z,10.60
2018-05-07T09:23:32.542Z,10.47
2018-05-07T09:26:01.292Z,10.50
2018-05-07T09:28:29.989Z,11.10
2018-05-07T09:30:58.657Z,10.90
2018-05-07T09:33:27.243Z,10.07
2018-05-07T09:35:56.004Z,11.33
2018-05-07T09:38:24.521Z,10.83
2018-05-07T09:40:53.303Z,10.93
2018-05-07T09:43:22.964Z,10.57
2018-05-07T09:45:51.602Z,10.47
2018-05-07T09:48:20.372Z,11.33
2018-05-07T09:50:48.935Z,10.53
2018-05-07T09:53:17.513Z,10.87
2018-05-07T09:55:46.328Z,10.10
2018-05-07T09:58:14.787Z,10.80
2018-05-07T10:00:43.363Z,10.33
2018-05-07T10:03:11.862Z,10.07
2018-05-07T10:05:40.588Z,10.87
2018-05-07T10:08:09.148Z,10.27
2018-05-07T10:10:37.785Z,10.50
2018-05-07T10:13:06.400Z,10.70
2018-05-07T10:15:35.171Z,10.10
2018-05-07T10:18:04.012Z,10.17
2018-05-07T10:20:32.823Z,11.07
2018-05-07T10:23:01.482Z,10.90
2018-05-07T10:25:30.901Z,11.07
2018-05-07T10:27:59.586Z,11.13
2018-05-07T10:30:28.288Z,10.83
2018-05-07T10:32:57.008Z,9.97
2018-05-07T10:35:25.843Z,10.20
2018-05-07T10:37:54.541Z,9.50
2018-05-07T10:40:23.306Z,9.30
2018-05-07T10:42:52.138Z,9.33
2018-05-07T10:45:20.917Z,9.80
2018-05-07T10:47:49.465Z,8.77
2018-05-07T10:50:18.095Z,8.97
2018-05-07T10:52:46.741Z,9.27
2018-05-07T10:55:15.364Z,9.20
2018-05-07T10:57:44.011Z,9.30
2018-05-07T11:00:12.477Z,9.93
2018-05-07T11:02:41.152Z,9.47
2018-05-07T11:05:10.324Z,9.03
2018-05-07T11:07:38.937Z,9.10
2018-05-07T11:10:07.394Z,9.60
2018-05-07T11:12:36.009Z,9.20
2018-05-07T11:15:04.645Z,8.67
2018-05-07T11:17:33.171Z,8.90
2018-05-07T11:20:02.512Z,8.30
2018-05-07T11:22:31.328Z,8.00
2018-05-07T11:24:59.972Z,7.83
2018-05-07T11:27:28.563Z,7.80
2018-05-07T11:29:57.394Z,7.50
2018-05-07T11:32:26.077Z,8.40
2018-05-07T11:34:54.798Z,8.20
2018-05-07T11:37:24.235Z,7.80
2018-05-07T11:39:52.642Z,8.37
2018-05-07T11:42:21.367Z,7.77
2018-05-07T11:44:49.813Z,8.20
2018-05-07T11:47:18.237Z,8.00
2018-05-07T11:49:46.726Z,7.37
2018-05-07T11:52:15.165Z,8.43
2018-05-07T11:54:43.857Z,8.63
2018-05-07T11:57:12.432Z,7.70
2018-05-07T12:02:15.469Z,7.80
2018-05-07T12:04:44.160Z,7.80
2018-05-07T12:07:12.550Z,8.07
2018-05-07T12:09:40.934Z,8.10
2018-05-07T12:12:09.608Z,9.40
2018-05-07T12:14:38.194Z,8.67
2018-05-07T12:17:06.780Z,8.57
2018-05-07T12:19:35.612Z,8.33
2018-05-07T12:22:04.293Z,7.87
2018-05-07T12:24:32.935Z,8.80
2018-05-07T12:27:01.965Z,8.63
2018-05-07T12:29:30.654Z,8.30
2018-05-07T12:31:59.380Z,8.13
2018-05-07T12:34:27.752Z,8.00
2018-05-07T12:36:57.096Z,8.40
2018-05-07T12:39:25.515Z,8.37
2018-05-07T12:41:54.170Z,8.00
2018-05-07T12:44:22.686Z,8.70
2018-05-07T12:46:52.155Z,7.97
2018-05-07T12:49:20.813Z,8.27
2018-05-07T12:51:49.263Z,8.33
2018-05-07T12:54:17.854Z,8.10
2018-05-07T12:56:46.380Z,7.80
2018-05-07T12:59:15.092Z,7.73
2018-05-07T13:01:44.555Z,7.63
2018-05-07T13:04:13.065Z,7.30
2018-05-07T13:06:41.765Z,7.30
2018-05-07T13:09:10.337Z,7.50
2018-05-07T13:11:38.909Z,7.37
2018-05-07T13:14:07.467Z,7.17
2018-05-07T13:16:36.110Z,7.80
2018-05-07T13:19:04.835Z,7.50
2018-05-07T13:21:33.469Z,7.47
2018-05-07T13:24:02.150Z,6.32
2018-05-07T13:26:30.840Z,5.70
2018-05-07T13:28:59.420Z,5.82
2018-05-07T13:31:28.246Z,6.37
2018-05-07T13:33:57.043Z,6.03
2018-05-07T13:36:25.449Z,6.53
2018-05-07T13:38:53.965Z,6.05
2018-05-07T13:41:22.610Z,7.10
2018-05-07T13:43:51.054Z,7.10
2018-05-07T13:46:19.680Z,6.78
2018-05-07T13:48:48.117Z,6.57
2018-05-07T13:51:16.760Z,6.78
2018-05-07T13:53:45.534Z,6.47
2018-05-07T13:56:14.230Z,5.80
2018-05-07T13:58:42.885Z,5.50
2018-05-07T14:01:11.442Z,6.10
2018-05-07T14:03:40.324Z,6.55
2018-05-07T14:06:08.895Z,5.55
2018-05-07T14:08:37.440Z,5.25
2018-05-07T14:11:06.180Z,6.03
2018-05-07T14:13:34.861Z,5.47
2018-05-07T14:16:03.650Z,5.15
2018-05-07T14:18:32.481Z,5.75
2018-05-07T14:21:01.160Z,6.40
2018-05-07T14:23:29.796Z,6.47
2018-05-07T14:25:58.435Z,6.70
2018-05-07T14:28:26.892Z,6.13
2018-05-07T14:30:55.610Z,5.60
2018-05-07T14:33:24.206Z,6.03
2018-05-07T14:35:53.320Z,6.27
2018-05-07T14:38:22.155Z,6.57
2018-05-07T14:40:51.016Z,6.60
2018-05-07T14:43:19.822Z,6.23
2018-05-07T14:45:48.206Z,6.10
2018-05-07T14:48:16.750Z,6.50
2018-05-07T14:50:45.327Z,5.70
2018-05-07T14:53:14.025Z,6.63
2018-05-07T14:55:42.803Z,6.50
2018-05-07T14:58:11.502Z,6.37
2018-05-07T15:00:40.268Z,6.57
2018-05-07T15:03:08.813Z,6.70
2018-05-07T15:05:37.361Z,6.43
2018-05-07T15:08:06.024Z,6.47
2018-05-07T15:10:34.551Z,6.70
2018-05-07T15:13:03.841Z,6.47
2018-05-07T15:15:32.424Z,6.60
2018-05-07T15:18:01.745Z,6.73
2018-05-07T15:20:30.127Z,6.20
2018-05-07T15:22:58.970Z,6.80
2018-05-07T15:25:27.672Z,6.60
2018-05-07T15:27:56.391Z,6.33
2018-05-07T15:30:25.182Z,6.20
2018-05-07T15:32:53.581Z,5.90
2018-05-07T15:35:22.348Z,6.30
2018-05-07T15:37:51.031Z,5.80
2018-05-07T15:40:19.661Z,5.80
2018-05-07T15:42:48.299Z,5.50
2018-05-07T15:45:16.933Z,5.50
2018-05-07T15:47:45.524Z,5.60
2018-05-07T15:50:14.200Z,5.60
2018-05-07T15:52:42.847Z,5.43
2018-05-07T15:55:11.277Z,5.30
2018-05-07T15:57:40.049Z,5.33
2018-05-07T16:00:09.932Z,6.17
2018-05-07T16:02:38.372Z,5.90
2018-05-07T16:05:07.000Z,5.53
2018-05-07T16:07:35.667Z,5.83
2018-05-07T16:10:04.228Z,5.87
2018-05-07T16:12:32.649Z,5.70
2018-05-07T16:15:01.256Z,6.20
2018-05-07T16:17:29.640Z,6.40
2018-05-07T16:19:58.375Z,6.20
2018-05-07T16:22:26.832Z,6.40
2018-05-07T16:24:55.296Z,6.43
2018-05-07T16:27:24.085Z,6.17
2018-05-07T16:29:52.826Z,6.90
2018-05-07T16:32:21.668Z,6.63
2018-05-07T16:34:51.087Z,6.93
2018-05-07T16:37:19.778Z,6.20
2018-05-07T16:39:48.462Z,5.97
2018-05-07T16:42:17.078Z,6.87
2018-05-07T16:44:45.786Z,5.73
2018-05-07T16:47:14.400Z,6.90
2018-05-07T16:49:43.037Z,5.33
2018-05-07T16:52:11.621Z,5.80
2018-05-07T16:54:41.092Z,5.97
2018-05-07T16:57:09.526Z,6.30
2018-05-07T16:59:38.216Z,6.73
2018-05-07T17:02:06.904Z,6.30
2018-05-07T17:04:35.434Z,6.57
2018-05-07T17:07:03.887Z,6.37
2018-05-07T17:09:32.663Z,6.10
2018-05-07T17:12:01.449Z,6.47
2018-05-07T17:14:30.130Z,6.17
2018-05-07T17:16:58.759Z,5.80
2018-05-07T17:19:27.402Z,5.97
2018-05-07T17:21:56.826Z,5.80
2018-05-07T17:24:25.513Z,5.93
2018-05-07T17:26:54.203Z,6.10
2018-05-07T17:29:22.774Z,6.00
2018-05-07T17:31:51.361Z,6.30
2018-05-07T17:34:19.996Z,6.30
2018-05-07T17:36:48.631Z,6.37
2018-05-07T17:39:17.189Z,6.07
2018-05-07T17:41:45.890Z,6.10
2018-05-07T17:44:32.085Z,6.20
2018-05-07T17:47:18.814Z,6.00
2018-05-07T17:49:47.458Z,6.10
2018-05-07T17:52:16.127Z,6.10
2018-05-07T17:54:44.864Z,6.20
2018-05-07T17:57:13.250Z,5.77
2018-05-07T17:59:41.903Z,6.20
2018-05-07T18:02:10.439Z,6.60
2018-05-07T18:04:39.112Z,6.27
2018-05-07T18:07:07.807Z,6.30
2018-05-07T18:09:36.398Z,6.03
2018-05-07T18:12:05.753Z,6.00
2018-05-07T18:14:34.388Z,6.30
2018-05-07T18:17:03.125Z,6.30
2018-05-07T18:19:31.856Z,6.10
2018-05-07T18:22:00.442Z,5.83
2018-05-07T18:24:29.675Z,5.80
2018-05-07T18:26:58.671Z,6.33
2018-05-07T18:29:27.177Z,5.57
2018-05-07T18:31:55.831Z,4.80
2018-05-07T18:34:24.361Z,5.03
2018-05-07T18:36:52.850Z,4.50
2018-05-07T18:39:21.530Z,4.43
2018-05-07T18:41:50.321Z,4.43
2018-05-07T18:44:19.643Z,4.57
2018-05-07T18:46:48.226Z,5.20
2018-05-07T18:49:16.802Z,5.27
2018-05-07T18:51:45.504Z,6.80
2018-05-07T18:54:14.276Z,8.13
2018-05-07T18:56:42.957Z,6.80
2018-05-07T18:59:11.548Z,5.70
2018-05-07T19:01:40.264Z,5.40
2018-05-07T19:04:08.817Z,5.17
2018-05-07T19:06:37.320Z,5.17
2018-05-07T19:09:05.946Z,5.00
2018-05-07T19:11:35.034Z,4.47
2018-05-07T19:14:04.502Z,4.50
2018-05-07T19:16:33.029Z,5.30
2018-05-07T19:19:02.060Z,8.70
2018-05-07T19:21:30.804Z,11.73
2018-05-07T19:23:59.670Z,15.00
2018-05-07T19:26:28.420Z,12.40
2018-05-07T19:28:58.120Z,13.00
2018-05-07T19:31:26.529Z,13.17
2018-05-07T19:33:55.116Z,9.13
2018-05-07T19:36:24.473Z,31.43
2018-05-07T19:38:53.119Z,46.33
2018-05-07T19:41:21.855Z,53.83
2018-05-07T19:43:51.259Z,50.60
2018-05-07T19:46:20.101Z,52.63
2018-05-07T19:48:48.694Z,22.20
2018-05-07T19:51:18.395Z,51.53
2018-05-07T19:53:47.160Z,53.57
2018-05-07T19:56:16.846Z,78.13
2018-05-07T19:58:45.462Z,23.73
2018-05-07T20:01:14.281Z,20.27
2018-05-07T20:03:42.872Z,16.47
2018-05-07T20:06:12.224Z,16.00
2018-05-07T20:08:40.737Z,15.47
2018-05-07T20:11:10.095Z,32.83
2018-05-07T20:13:38.852Z,33.40
2018-05-07T20:16:07.609Z,24.97
2018-05-07T20:18:36.200Z,31.33
2018-05-07T20:21:04.967Z,38.13
2018-05-07T20:23:33.603Z,31.93
2018-05-07T20:26:02.443Z,33.50
2018-05-07T20:28:31.518Z,29.93
2018-05-07T20:31:00.100Z,38.27
2018-05-07T20:33:29.127Z,27.07
2018-05-07T20:35:58.215Z,34.73
2018-05-07T20:38:26.845Z,33.10
2018-05-07T20:40:55.582Z,27.47
2018-05-07T20:43:24.113Z,25.27
2018-05-07T20:45:52.619Z,67.40
2018-05-07T20:48:22.098Z,31.83
2018-05-07T20:50:50.800Z,31.40
2018-05-07T20:53:19.586Z,35.47
2018-05-07T20:55:48.287Z,51.93
2018-05-07T20:58:16.953Z,28.97
2018-05-07T21:00:46.279Z,37.60
2018-05-07T21:03:15.039Z,39.73
2018-05-07T21:05:44.229Z,39.47
2018-05-07T21:08:12.983Z,39.97
2018-05-07T21:10:41.471Z,38.97
2018-05-07T21:13:10.142Z,22.57
2018-05-07T21:15:38.799Z,26.20
2018-05-07T21:18:08.266Z,20.03
2018-05-07T21:20:36.836Z,24.30
2018-05-07T21:23:05.570Z,22.10
2018-05-07T21:25:34.253Z,47.87
2018-05-07T21:28:02.893Z,40.43
2018-05-07T21:30:31.475Z,36.97
2018-05-07T21:33:00.271Z,42.13
2018-05-07T21:35:28.993Z,47.50
2018-05-07T21:37:57.779Z,48.83
2018-05-07T21:40:26.570Z,47.87
2018-05-07T21:42:55.164Z,41.17
2018-05-07T21:45:23.733Z,43.83
2018-05-07T21:47:52.515Z,40.03
2018-05-07T21:50:21.271Z,33.53
2018-05-07T21:52:51.259Z,44.90
2018-05-07T21:55:19.899Z,40.57
2018-05-07T21:57:48.432Z,32.50
2018-05-07T22:00:17.134Z,41.13
2018-05-07T22:02:45.633Z,44.60
2018-05-07T22:05:15.094Z,35.40
2018-05-07T22:07:43.960Z,38.67
2018-05-07T22:10:12.753Z,35.43
2018-05-07T22:12:41.278Z,38.47
2018-05-07T22:15:10.738Z,40.50
2018-05-07T22:17:39.406Z,36.70
2018-05-07T22:20:08.757Z,24.73
2018-05-07T22:22:37.395Z,26.87
2018-05-07T22:25:06.031Z,24.93
2018-05-07T22:27:34.613Z,24.97
2018-05-07T22:30:03.310Z,33.73
2018-05-07T22:32:31.984Z,20.13
2018-05-07T22:35:01.297Z,26.23
2018-05-07T22:37:30.385Z,30.03
2018-05-07T22:39:59.289Z,30.30
2018-05-07T22:42:28.249Z,27.33
2018-05-07T22:44:56.891Z,14.77
2018-05-07T22:47:25.563Z,14.43
2018-05-07T22:49:54.299Z,22.70
2018-05-07T22:52:22.994Z,19.53
2018-05-07T22:54:51.865Z,21.60
2018-05-07T22:57:20.506Z,25.37
2018-05-07T22:59:49.098Z,29.87
2018-05-07T23:02:17.526Z,31.87
2018-05-07T23:04:46.287Z,29.27
2018-05-07T23:07:14.810Z,25.90
2018-05-07T23:09:43.387Z,27.27
2018-05-07T23:12:12.068Z,22.53
2018-05-07T23:14:40.711Z,24.87
2018-05-07T23:17:09.394Z,22.20
2018-05-07T23:19:38.593Z,22.13
2018-05-07T23:22:07.029Z,24.00
2018-05-07T23:24:35.746Z,35.57
2018-05-07T23:27:04.338Z,35.03
2018-05-07T23:29:33.055Z,40.90
2018-05-07T23:32:01.743Z,44.33
2018-05-07T23:34:30.524Z,43.90
2018-05-07T23:36:59.260Z,38.10
2018-05-07T23:39:27.658Z,40.47
2018-05-07T23:41:56.387Z,35.80
2018-05-07T23:44:25.080Z,33.20
2018-05-07T23:46:54.685Z,39.30
2018-05-07T23:49:23.268Z,37.57
2018-05-07T23:51:51.671Z,34.73
2018-05-07T23:54:20.261Z,33.10
2018-05-07T23:56:48.724Z,34.67
2018-05-07T23:59:17.344Z,27.83
